AVA2401 SLLP-SPJC
Flight info
| Callsign | AVA2401 |
|---|---|
| Flight time | 1h 52m |
| Altitude | 34000 |
| Route | ELAKO UM657 JUL UV18 AND UT336 VUPUD DCT PEROV |
| Aircraft | MD82/M-SDFGIRWY/S |
Departure
| Time | 2026-05-05 22:51 |
|---|---|
| Airport | El Alto International Airport (SLLP) |
Arrival
| Time | 2026-05-06 00:43 |
|---|---|
| Airport | Jorge Chávez International Airport (SPJC) |
| Time | Latitude | Longitude | Altitude | Speed | Heading |
|---|---|---|---|---|---|
| 2026-05-05 22:10 | -16.50949 | -68.17769 | 13336 ft | 0 kts | 37° |
| 2026-05-05 22:38 | -16.50953 | -68.17772 | 13336 ft | 3 kts | 37° |
| 2026-05-05 22:38 | -16.50972 | -68.17786 | 13334 ft | 1 kts | 37° |
| 2026-05-05 22:38 | -16.50988 | -68.17795 | 13336 ft | 4 kts | 352° |
| 2026-05-05 22:39 | -16.50992 | -68.17793 | 13336 ft | 4 kts | 279° |
| 2026-05-05 22:39 | -16.50994 | -68.17766 | 13334 ft | 4 kts | 271° |
| 2026-05-05 22:39 | -16.50994 | -68.17753 | 13334 ft | 0 kts | 271° |
| 2026-05-05 22:41 | -16.50994 | -68.17761 | 13334 ft | 4 kts | 271° |
| 2026-05-05 22:42 | -16.50993 | -68.17805 | 13336 ft | 8 kts | 271° |
| 2026-05-05 22:42 | -16.50993 | -68.17858 | 13336 ft | 7 kts | 263° |
| 2026-05-05 22:42 | -16.51010 | -68.17893 | 13336 ft | 5 kts | 230° |
| 2026-05-05 22:42 | -16.51036 | -68.17923 | 13336 ft | 7 kts | 228° |
| 2026-05-05 22:43 | -16.51079 | -68.17972 | 13334 ft | 12 kts | 227° |
| 2026-05-05 22:43 | -16.51151 | -68.18053 | 13325 ft | 19 kts | 226° |
| 2026-05-05 22:43 | -16.51262 | -68.18183 | 13304 ft | 28 kts | 234° |
| 2026-05-05 22:43 | -16.51340 | -68.18358 | 13298 ft | 26 kts | 255° |
| 2026-05-05 22:44 | -16.51354 | -68.18543 | 13293 ft | 26 kts | 272° |
| 2026-05-05 22:44 | -16.51348 | -68.18726 | 13293 ft | 25 kts | 272° |
| 2026-05-05 22:44 | -16.51344 | -68.18904 | 13290 ft | 24 kts | 271° |
| 2026-05-05 22:44 | -16.51340 | -68.19075 | 13284 ft | 23 kts | 272° |
| 2026-05-05 22:45 | -16.51333 | -68.19245 | 13282 ft | 24 kts | 272° |
| 2026-05-05 22:45 | -16.51326 | -68.19419 | 13275 ft | 25 kts | 272° |
| 2026-05-05 22:45 | -16.51321 | -68.19607 | 13263 ft | 27 kts | 272° |
| 2026-05-05 22:45 | -16.51314 | -68.19822 | 13245 ft | 32 kts | 271° |
| 2026-05-05 22:46 | -16.51307 | -68.20067 | 13222 ft | 36 kts | 271° |
| 2026-05-05 22:46 | -16.51300 | -68.20349 | 13201 ft | 41 kts | 271° |
| 2026-05-05 22:46 | -16.51292 | -68.20656 | 13178 ft | 44 kts | 272° |
| 2026-05-05 22:46 | -16.51279 | -68.20959 | 13162 ft | 24 kts | 274° |
| 2026-05-05 22:47 | -16.51248 | -68.21073 | 13157 ft | 3 kts | 242° |
| 2026-05-05 22:47 | -16.51257 | -68.21076 | 13157 ft | 3 kts | 186° |
| 2026-05-05 22:47 | -16.51273 | -68.21068 | 13158 ft | 3 kts | 138° |
| 2026-05-05 22:47 | -16.51277 | -68.21055 | 13158 ft | 0 kts | 92° |
| 2026-05-05 22:48 | -16.51277 | -68.21053 | 13158 ft | 0 kts | 92° |
| 2026-05-05 22:49 | -16.51277 | -68.21050 | 13159 ft | 6 kts | 92° |
| 2026-05-05 22:49 | -16.51280 | -68.20928 | 13163 ft | 32 kts | 91° |
| 2026-05-05 22:50 | -16.51288 | -68.20695 | 13175 ft | 64 kts | 92° |
| 2026-05-05 22:50 | -16.51315 | -68.19850 | 13243 ft | 110 kts | 92° |
| 2026-05-05 22:50 | -16.51342 | -68.18942 | 13284 ft | 140 kts | 92° |
| 2026-05-05 22:50 | -16.51363 | -68.18211 | 13310 ft | 158 kts | 93° |
| 2026-05-05 22:51 | -16.51466 | -68.16584 | 13493 ft | 175 kts | 94° |
| 2026-05-05 22:51 | -16.51511 | -68.15725 | 13778 ft | 177 kts | 93° |
| 2026-05-05 22:51 | -16.51578 | -68.14412 | 14099 ft | 192 kts | 93° |
| 2026-05-05 22:51 | -16.51745 | -68.13018 | 14557 ft | 196 kts | 106° |
| 2026-05-05 22:52 | -16.52478 | -68.11790 | 14682 ft | 208 kts | 143° |
| 2026-05-05 22:52 | -16.53769 | -68.11279 | 15120 ft | 200 kts | 180° |
| 2026-05-05 22:52 | -16.55168 | -68.11432 | 15418 ft | 206 kts | 193° |
| 2026-05-05 22:52 | -16.56414 | -68.12131 | 15729 ft | 206 kts | 222° |
| 2026-05-05 22:53 | -16.57331 | -68.13305 | 15945 ft | 213 kts | 246° |
| 2026-05-05 22:53 | -16.57805 | -68.14762 | 16405 ft | 204 kts | 254° |
| 2026-05-05 22:53 | -16.58128 | -68.16185 | 16728 ft | 206 kts | 260° |
| 2026-05-05 22:53 | -16.58332 | -68.17677 | 17000 ft | 210 kts | 263° |
| 2026-05-05 22:54 | -16.58465 | -68.19227 | 17133 ft | 221 kts | 270° |
| 2026-05-05 22:54 | -16.58357 | -68.20901 | 17147 ft | 238 kts | 274° |
| 2026-05-05 22:54 | -16.58341 | -68.22647 | 17342 ft | 246 kts | 267° |
| 2026-05-05 22:54 | -16.58477 | -68.24463 | 17498 ft | 257 kts | 264° |
| 2026-05-05 22:55 | -16.58651 | -68.26353 | 17647 ft | 267 kts | 265° |
| 2026-05-05 22:55 | -16.58805 | -68.28318 | 17789 ft | 277 kts | 266° |
| 2026-05-05 22:55 | -16.58926 | -68.30353 | 17967 ft | 284 kts | 267° |
| 2026-05-05 22:55 | -16.59015 | -68.32436 | 18195 ft | 290 kts | 268° |
| 2026-05-05 22:56 | -16.59081 | -68.34552 | 18418 ft | 295 kts | 268° |
| 2026-05-05 22:56 | -16.59135 | -68.36705 | 18637 ft | 299 kts | 265° |
| 2026-05-05 22:56 | -16.59662 | -68.38797 | 18839 ft | 302 kts | 243° |
| 2026-05-05 22:56 | -16.60704 | -68.40710 | 19027 ft | 305 kts | 238° |
| 2026-05-05 22:57 | -16.61815 | -68.42585 | 19202 ft | 309 kts | 238° |
| 2026-05-05 22:57 | -16.62958 | -68.44495 | 19189 ft | 312 kts | 238° |
| 2026-05-05 22:57 | -16.64118 | -68.46421 | 19392 ft | 315 kts | 238° |
| 2026-05-05 22:57 | -16.65291 | -68.48370 | 19629 ft | 318 kts | 238° |
| 2026-05-05 22:58 | -16.66421 | -68.50350 | 19905 ft | 320 kts | 246° |
| 2026-05-05 22:58 | -16.66928 | -68.52594 | 20266 ft | 319 kts | 272° |
| 2026-05-05 22:58 | -16.66460 | -68.54843 | 20671 ft | 319 kts | 297° |
| 2026-05-05 22:58 | -16.65170 | -68.56704 | 21091 ft | 318 kts | 315° |
| 2026-05-05 22:59 | -16.63583 | -68.58331 | 21504 ft | 320 kts | 317° |
| 2026-05-05 22:59 | -16.61952 | -68.59931 | 21864 ft | 323 kts | 317° |
| 2026-05-05 22:59 | -16.60317 | -68.61506 | 22252 ft | 325 kts | 318° |
| 2026-05-05 22:59 | -16.58630 | -68.63128 | 22659 ft | 327 kts | 318° |
| 2026-05-05 23:00 | -16.55360 | -68.66343 | 23459 ft | 329 kts | 317° |
| 2026-05-05 23:00 | -16.53711 | -68.68004 | 23839 ft | 330 kts | 316° |
| 2026-05-05 23:00 | -16.52073 | -68.69673 | 24165 ft | 331 kts | 316° |
| 2026-05-05 23:01 | -16.50421 | -68.71369 | 24446 ft | 334 kts | 316° |
| 2026-05-05 23:01 | -16.48766 | -68.73077 | 24716 ft | 336 kts | 316° |
| 2026-05-05 23:01 | -16.47099 | -68.74801 | 25017 ft | 339 kts | 316° |
| 2026-05-05 23:01 | -16.45418 | -68.76537 | 25268 ft | 343 kts | 316° |
| 2026-05-05 23:02 | -16.43712 | -68.78299 | 25478 ft | 349 kts | 316° |
| 2026-05-05 23:02 | -16.41971 | -68.80095 | 25664 ft | 355 kts | 316° |
| 2026-05-05 23:02 | -16.40198 | -68.81920 | 25852 ft | 362 kts | 316° |
| 2026-05-05 23:02 | -16.38390 | -68.83780 | 26048 ft | 368 kts | 316° |
| 2026-05-05 23:03 | -16.36550 | -68.85669 | 26229 ft | 375 kts | 316° |
| 2026-05-05 23:03 | -16.34673 | -68.87593 | 26425 ft | 381 kts | 316° |
| 2026-05-05 23:03 | -16.32769 | -68.89542 | 26634 ft | 387 kts | 316° |
| 2026-05-05 23:03 | -16.30836 | -68.91520 | 26849 ft | 392 kts | 316° |
| 2026-05-05 23:04 | -16.28879 | -68.93524 | 27063 ft | 397 kts | 316° |
| 2026-05-05 23:04 | -16.26900 | -68.95553 | 27280 ft | 402 kts | 316° |
| 2026-05-05 23:04 | -16.24893 | -68.97608 | 27491 ft | 407 kts | 316° |
| 2026-05-05 23:04 | -16.22882 | -68.99666 | 27724 ft | 411 kts | 316° |
| 2026-05-05 23:05 | -16.20832 | -69.01759 | 27947 ft | 416 kts | 316° |
| 2026-05-05 23:05 | -16.18758 | -69.03876 | 28170 ft | 420 kts | 316° |
| 2026-05-05 23:05 | -16.16663 | -69.06019 | 28394 ft | 424 kts | 316° |
| 2026-05-05 23:05 | -16.14551 | -69.08180 | 28616 ft | 428 kts | 316° |
| 2026-05-05 23:06 | -16.12420 | -69.10358 | 28847 ft | 431 kts | 316° |
| 2026-05-05 23:06 | -16.10275 | -69.12551 | 29101 ft | 434 kts | 316° |
| 2026-05-05 23:06 | -16.08111 | -69.14762 | 29330 ft | 437 kts | 316° |
| 2026-05-05 23:06 | -16.05929 | -69.16987 | 29563 ft | 440 kts | 316° |
| 2026-05-05 23:07 | -16.03737 | -69.19219 | 29800 ft | 443 kts | 316° |
| 2026-05-05 23:07 | -16.01526 | -69.21471 | 30044 ft | 446 kts | 316° |
| 2026-05-05 23:07 | -15.99308 | -69.23732 | 30295 ft | 448 kts | 316° |
| 2026-05-05 23:07 | -15.97083 | -69.26004 | 30469 ft | 450 kts | 316° |
| 2026-05-05 23:08 | -15.94845 | -69.28286 | 30684 ft | 450 kts | 316° |
| 2026-05-05 23:08 | -15.92673 | -69.30626 | 30895 ft | 449 kts | 308° |
| 2026-05-05 23:08 | -15.90948 | -69.33332 | 31091 ft | 449 kts | 301° |
| 2026-05-05 23:08 | -15.89428 | -69.36172 | 31309 ft | 448 kts | 300° |
| 2026-05-05 23:09 | -15.87978 | -69.38981 | 31527 ft | 447 kts | 300° |
| 2026-05-05 23:09 | -15.86495 | -69.41860 | 31730 ft | 445 kts | 300° |
| 2026-05-05 23:09 | -15.85044 | -69.44646 | 31936 ft | 443 kts | 300° |
| 2026-05-05 23:09 | -15.83561 | -69.47450 | 32148 ft | 442 kts | 300° |
| 2026-05-05 23:10 | -15.82066 | -69.50235 | 32357 ft | 440 kts | 301° |
| 2026-05-05 23:10 | -15.80569 | -69.52999 | 32586 ft | 438 kts | 301° |
| 2026-05-05 23:10 | -15.79075 | -69.55750 | 32801 ft | 437 kts | 301° |
| 2026-05-05 23:10 | -15.77585 | -69.58490 | 33022 ft | 435 kts | 301° |
| 2026-05-05 23:11 | -15.76099 | -69.61220 | 33247 ft | 434 kts | 301° |
| 2026-05-05 23:11 | -15.74622 | -69.63940 | 33471 ft | 432 kts | 301° |
| 2026-05-05 23:11 | -15.73147 | -69.66659 | 33708 ft | 431 kts | 301° |
| 2026-05-05 23:11 | -15.71682 | -69.69363 | 33915 ft | 430 kts | 301° |
| 2026-05-05 23:12 | -15.70213 | -69.72071 | 34024 ft | 431 kts | 301° |
| 2026-05-05 23:12 | -15.68736 | -69.74785 | 34078 ft | 431 kts | 301° |
| 2026-05-05 23:12 | -15.65805 | -69.80172 | 34110 ft | 431 kts | 301° |
| 2026-05-05 23:13 | -15.62868 | -69.85573 | 34117 ft | 429 kts | 301° |
| 2026-05-05 23:13 | -15.59975 | -69.90899 | 34119 ft | 427 kts | 301° |
| 2026-05-05 23:14 | -15.57056 | -69.96266 | 34134 ft | 426 kts | 301° |
| 2026-05-05 23:14 | -15.54164 | -70.01583 | 34127 ft | 426 kts | 301° |
| 2026-05-05 23:15 | -15.51242 | -70.06952 | 34141 ft | 427 kts | 301° |
| 2026-05-05 23:15 | -15.48319 | -70.12319 | 34140 ft | 427 kts | 301° |
| 2026-05-05 23:16 | -15.46857 | -70.15006 | 34586 ft | 427 kts | 301° |
| 2026-05-05 23:16 | -15.45404 | -70.17694 | 34585 ft | 428 kts | 301° |
| 2026-05-05 23:16 | -15.42529 | -70.23084 | 34577 ft | 427 kts | 301° |
| 2026-05-05 23:17 | -15.39663 | -70.28471 | 34501 ft | 431 kts | 301° |
| 2026-05-05 23:17 | -15.36763 | -70.33923 | 34178 ft | 431 kts | 301° |
| 2026-05-05 23:18 | -15.33863 | -70.39361 | 34181 ft | 431 kts | 301° |
| 2026-05-05 23:18 | -15.30960 | -70.44801 | 34153 ft | 431 kts | 301° |
| 2026-05-05 23:19 | -15.28058 | -70.50240 | 34193 ft | 431 kts | 301° |
| 2026-05-05 23:19 | -15.25153 | -70.55675 | 34194 ft | 431 kts | 301° |
| 2026-05-05 23:20 | -15.22253 | -70.61056 | 34219 ft | 431 kts | 301° |
| 2026-05-05 23:20 | -15.19336 | -70.66478 | 34176 ft | 431 kts | 301° |
| 2026-05-05 23:21 | -15.16419 | -70.71922 | 34183 ft | 431 kts | 301° |
| 2026-05-05 23:21 | -15.13511 | -70.77359 | 34202 ft | 432 kts | 301° |
| 2026-05-05 23:22 | -15.10607 | -70.82783 | 34207 ft | 434 kts | 301° |
| 2026-05-05 23:22 | -15.07679 | -70.88256 | 34175 ft | 434 kts | 301° |
| 2026-05-05 23:23 | -15.04786 | -70.93640 | 34179 ft | 433 kts | 301° |
| 2026-05-05 23:23 | -15.01856 | -70.99081 | 34175 ft | 432 kts | 301° |
| 2026-05-05 23:24 | -14.98935 | -71.04509 | 34180 ft | 431 kts | 301° |
| 2026-05-05 23:24 | -14.96029 | -71.09911 | 34146 ft | 432 kts | 301° |
| 2026-05-05 23:25 | -14.93107 | -71.15343 | 34149 ft | 432 kts | 301° |
| 2026-05-05 23:25 | -14.90181 | -71.20781 | 34150 ft | 432 kts | 301° |
| 2026-05-05 23:26 | -14.87256 | -71.26214 | 34153 ft | 432 kts | 301° |
| 2026-05-05 23:26 | -14.84323 | -71.31653 | 34121 ft | 433 kts | 301° |
| 2026-05-05 23:27 | -14.81380 | -71.37088 | 34130 ft | 434 kts | 301° |
| 2026-05-05 23:27 | -14.78442 | -71.42518 | 34129 ft | 434 kts | 301° |
| 2026-05-05 23:28 | -14.75497 | -71.47961 | 34131 ft | 434 kts | 301° |
| 2026-05-05 23:28 | -14.72554 | -71.53402 | 34114 ft | 433 kts | 301° |
| 2026-05-05 23:29 | -14.69608 | -71.58844 | 34130 ft | 433 kts | 301° |
| 2026-05-05 23:29 | -14.66669 | -71.64269 | 34127 ft | 433 kts | 301° |
| 2026-05-05 23:30 | -14.64230 | -71.68773 | 34129 ft | 432 kts | 301° |
| 2026-05-05 23:30 | -14.60783 | -71.75110 | 34123 ft | 433 kts | 301° |
| 2026-05-05 23:31 | -14.57844 | -71.80505 | 34127 ft | 433 kts | 301° |
| 2026-05-05 23:31 | -14.54890 | -71.85937 | 34134 ft | 433 kts | 301° |
| 2026-05-05 23:32 | -14.51939 | -71.91364 | 34137 ft | 433 kts | 301° |
| 2026-05-05 23:32 | -14.48998 | -71.96774 | 34105 ft | 431 kts | 301° |
| 2026-05-05 23:33 | -14.46086 | -72.02124 | 34099 ft | 430 kts | 302° |
| 2026-05-05 23:33 | -14.43141 | -72.07516 | 34098 ft | 430 kts | 302° |
| 2026-05-05 23:34 | -14.40194 | -72.12901 | 34100 ft | 431 kts | 302° |
| 2026-05-05 23:34 | -14.37250 | -72.18280 | 34103 ft | 431 kts | 302° |
| 2026-05-05 23:35 | -14.34307 | -72.23670 | 34103 ft | 431 kts | 302° |
| 2026-05-05 23:35 | -14.31363 | -72.29059 | 34113 ft | 430 kts | 302° |
| 2026-05-05 23:36 | -14.28442 | -72.34395 | 34114 ft | 429 kts | 302° |
| 2026-05-05 23:36 | -14.25489 | -72.39784 | 34108 ft | 430 kts | 302° |
| 2026-05-05 23:37 | -14.22561 | -72.45124 | 34113 ft | 432 kts | 302° |
| 2026-05-05 23:37 | -14.19600 | -72.50511 | 34115 ft | 432 kts | 302° |
| 2026-05-05 23:38 | -14.16646 | -72.55886 | 34430 ft | 427 kts | 302° |
| 2026-05-05 23:38 | -14.15180 | -72.58552 | 34610 ft | 426 kts | 302° |
| 2026-05-05 23:38 | -14.13717 | -72.61210 | 34797 ft | 426 kts | 302° |
| 2026-05-05 23:39 | -14.12751 | -72.62970 | 34922 ft | 426 kts | 302° |
| 2026-05-05 23:39 | -14.10816 | -72.66490 | 35165 ft | 426 kts | 302° |
| 2026-05-05 23:39 | -14.09360 | -72.69139 | 35366 ft | 425 kts | 301° |
| 2026-05-05 23:39 | -14.07906 | -72.71785 | 35542 ft | 424 kts | 301° |
| 2026-05-05 23:40 | -14.06456 | -72.74418 | 35740 ft | 423 kts | 301° |
| 2026-05-05 23:40 | -14.05476 | -72.76196 | 35852 ft | 422 kts | 301° |
| 2026-05-05 23:40 | -14.04032 | -72.78821 | 36012 ft | 422 kts | 301° |
| 2026-05-05 23:40 | -14.02583 | -72.81452 | 36108 ft | 423 kts | 301° |
| 2026-05-05 23:41 | -13.99692 | -72.86688 | 36180 ft | 423 kts | 301° |
| 2026-05-05 23:41 | -13.96791 | -72.91943 | 36182 ft | 421 kts | 301° |
| 2026-05-05 23:42 | -13.93906 | -72.97167 | 36193 ft | 421 kts | 301° |
| 2026-05-05 23:42 | -13.91001 | -73.02432 | 36202 ft | 423 kts | 301° |
| 2026-05-05 23:43 | -13.88090 | -73.07699 | 36222 ft | 423 kts | 302° |
| 2026-05-05 23:43 | -13.85183 | -73.12956 | 36203 ft | 421 kts | 302° |
| 2026-05-05 23:44 | -13.82276 | -73.18200 | 36226 ft | 423 kts | 302° |
| 2026-05-05 23:44 | -13.79333 | -73.23454 | 36235 ft | 423 kts | 302° |
| 2026-05-05 23:45 | -13.76421 | -73.28709 | 36259 ft | 423 kts | 301° |
| 2026-05-05 23:45 | -13.73540 | -73.33947 | 36255 ft | 423 kts | 301° |
| 2026-05-05 23:46 | -13.70858 | -73.39342 | 36266 ft | 426 kts | 291° |
| 2026-05-05 23:46 | -13.69152 | -73.45187 | 36267 ft | 427 kts | 288° |
| 2026-05-05 23:47 | -13.67566 | -73.51068 | 36263 ft | 427 kts | 288° |
| 2026-05-05 23:47 | -13.65925 | -73.56946 | 36256 ft | 427 kts | 289° |
| 2026-05-05 23:48 | -13.64246 | -73.62764 | 36257 ft | 427 kts | 289° |
| 2026-05-05 23:48 | -13.62536 | -73.68621 | 36272 ft | 428 kts | 289° |
| 2026-05-05 23:49 | -13.60833 | -73.74491 | 36266 ft | 426 kts | 288° |
| 2026-05-05 23:49 | -13.59152 | -73.80321 | 36272 ft | 426 kts | 289° |
| 2026-05-05 23:50 | -13.57452 | -73.86165 | 36276 ft | 427 kts | 289° |
| 2026-05-05 23:50 | -13.55750 | -73.92009 | 36273 ft | 427 kts | 289° |
| 2026-05-05 23:51 | -13.54051 | -73.97854 | 36290 ft | 426 kts | 289° |
| 2026-05-05 23:51 | -13.52356 | -74.03688 | 36289 ft | 425 kts | 289° |
| 2026-05-05 23:52 | -13.50661 | -74.09500 | 36313 ft | 425 kts | 289° |
| 2026-05-05 23:52 | -13.48975 | -74.15293 | 36313 ft | 425 kts | 289° |
| 2026-05-05 23:53 | -13.47282 | -74.21122 | 36316 ft | 425 kts | 289° |
| 2026-05-05 23:53 | -13.45578 | -74.26950 | 36336 ft | 426 kts | 289° |
| 2026-05-05 23:54 | -13.43871 | -74.32768 | 36339 ft | 426 kts | 289° |
| 2026-05-05 23:54 | -13.42166 | -74.38593 | 36348 ft | 426 kts | 289° |
| 2026-05-05 23:55 | -13.40462 | -74.44409 | 36347 ft | 425 kts | 289° |
| 2026-05-05 23:55 | -13.38761 | -74.50226 | 36344 ft | 425 kts | 289° |
| 2026-05-05 23:56 | -13.37068 | -74.56016 | 36345 ft | 426 kts | 289° |
| 2026-05-05 23:56 | -13.35359 | -74.61847 | 36347 ft | 427 kts | 289° |
| 2026-05-05 23:57 | -13.33641 | -74.67688 | 36344 ft | 428 kts | 289° |
| 2026-05-05 23:57 | -13.31919 | -74.73536 | 36349 ft | 427 kts | 289° |
| 2026-05-05 23:58 | -13.30751 | -74.76315 | 36373 ft | 423 kts | 304° |
| 2026-05-05 23:58 | -13.29058 | -74.78760 | 36361 ft | 422 kts | 309° |
| 2026-05-05 23:58 | -13.25386 | -74.83476 | 36360 ft | 423 kts | 310° |
| 2026-05-05 23:59 | -13.21717 | -74.88209 | 36353 ft | 422 kts | 309° |
| 2026-05-05 23:59 | -13.18193 | -74.92872 | 36373 ft | 421 kts | 309° |
| 2026-05-06 00:00 | -13.14635 | -74.97648 | 36376 ft | 421 kts | 309° |
| 2026-05-06 00:00 | -13.11077 | -75.02427 | 36380 ft | 422 kts | 308° |
| 2026-05-06 00:01 | -13.07501 | -75.07212 | 36368 ft | 422 kts | 309° |
| 2026-05-06 00:01 | -13.03939 | -75.11989 | 36370 ft | 421 kts | 309° |
| 2026-05-06 00:02 | -13.00363 | -75.16751 | 36367 ft | 421 kts | 309° |
| 2026-05-06 00:02 | -12.96779 | -75.21517 | 36352 ft | 423 kts | 309° |
| 2026-05-06 00:03 | -12.93194 | -75.26292 | 36348 ft | 423 kts | 309° |
| 2026-05-06 00:03 | -12.89934 | -75.30632 | 36364 ft | 423 kts | 309° |
| 2026-05-06 00:13 | -12.88424 | -75.32798 | 36369 ft | 421 kts | 300° |
| 2026-05-06 00:14 | -12.85010 | -75.37701 | 36303 ft | 423 kts | 306° |
| 2026-05-06 00:14 | -12.81310 | -75.42325 | 36330 ft | 423 kts | 308° |
| 2026-05-06 00:15 | -12.77613 | -75.47008 | 36363 ft | 422 kts | 308° |
| 2026-05-06 00:15 | -12.74006 | -75.51668 | 36328 ft | 421 kts | 309° |
| 2026-05-06 00:16 | -12.70401 | -75.56381 | 36326 ft | 421 kts | 309° |
| 2026-05-06 00:16 | -12.66854 | -75.61120 | 36326 ft | 422 kts | 308° |
| 2026-05-06 00:17 | -12.63310 | -75.65905 | 36284 ft | 422 kts | 308° |
| 2026-05-06 00:17 | -12.59739 | -75.70681 | 36280 ft | 423 kts | 309° |
| 2026-05-06 00:17 | -12.57925 | -75.73090 | 35879 ft | 431 kts | 309° |
| 2026-05-06 00:18 | -12.56089 | -75.75528 | 35450 ft | 433 kts | 309° |
| 2026-05-06 00:18 | -12.54250 | -75.77969 | 34934 ft | 432 kts | 310° |
| 2026-05-06 00:18 | -12.52441 | -75.80357 | 34356 ft | 429 kts | 310° |
| 2026-05-06 00:18 | -12.50613 | -75.82762 | 33673 ft | 426 kts | 310° |
| 2026-05-06 00:19 | -12.48801 | -75.85141 | 33016 ft | 422 kts | 310° |
| 2026-05-06 00:19 | -12.47004 | -75.87510 | 32410 ft | 419 kts | 310° |
| 2026-05-06 00:19 | -12.45226 | -75.89858 | 31808 ft | 416 kts | 310° |
| 2026-05-06 00:19 | -12.43468 | -75.92188 | 31214 ft | 412 kts | 310° |
| 2026-05-06 00:20 | -12.41722 | -75.94497 | 30596 ft | 409 kts | 310° |
| 2026-05-06 00:20 | -12.39985 | -75.96794 | 29975 ft | 407 kts | 310° |
| 2026-05-06 00:20 | -12.38255 | -75.99084 | 29345 ft | 405 kts | 310° |
| 2026-05-06 00:20 | -12.36546 | -76.01348 | 28763 ft | 401 kts | 310° |
| 2026-05-06 00:21 | -12.34995 | -76.03588 | 28240 ft | 400 kts | 299° |
| 2026-05-06 00:21 | -12.34043 | -76.06226 | 27950 ft | 393 kts | 287° |
| 2026-05-06 00:21 | -12.33431 | -76.08904 | 27864 ft | 388 kts | 285° |
| 2026-05-06 00:21 | -12.32870 | -76.11611 | 27805 ft | 393 kts | 284° |
| 2026-05-06 00:22 | -12.32316 | -76.14373 | 27740 ft | 400 kts | 284° |
| 2026-05-06 00:22 | -12.31758 | -76.17175 | 27680 ft | 404 kts | 284° |
| 2026-05-06 00:22 | -12.31188 | -76.20003 | 27616 ft | 406 kts | 284° |
| 2026-05-06 00:22 | -12.30606 | -76.22823 | 27501 ft | 404 kts | 284° |
| 2026-05-06 00:23 | -12.30014 | -76.25626 | 27400 ft | 402 kts | 284° |
| 2026-05-06 00:23 | -12.29413 | -76.28435 | 27138 ft | 405 kts | 284° |
| 2026-05-06 00:23 | -12.28803 | -76.31245 | 26751 ft | 405 kts | 284° |
| 2026-05-06 00:23 | -12.28192 | -76.34039 | 26294 ft | 401 kts | 284° |
| 2026-05-06 00:24 | -12.27589 | -76.36811 | 25752 ft | 397 kts | 284° |
| 2026-05-06 00:24 | -12.27001 | -76.39527 | 25221 ft | 395 kts | 284° |
| 2026-05-06 00:24 | -12.26408 | -76.42267 | 24649 ft | 395 kts | 284° |
| 2026-05-06 00:24 | -12.25818 | -76.45005 | 24078 ft | 394 kts | 284° |
| 2026-05-06 00:25 | -12.25222 | -76.47750 | 23365 ft | 397 kts | 284° |
| 2026-05-06 00:25 | -12.24623 | -76.50507 | 22556 ft | 398 kts | 284° |
| 2026-05-06 00:25 | -12.24027 | -76.53257 | 21829 ft | 391 kts | 284° |
| 2026-05-06 00:25 | -12.23449 | -76.55931 | 21247 ft | 376 kts | 283° |
| 2026-05-06 00:26 | -12.22904 | -76.58464 | 20947 ft | 355 kts | 283° |
| 2026-05-06 00:26 | -12.22383 | -76.60885 | 20426 ft | 344 kts | 284° |
| 2026-05-06 00:26 | -12.21868 | -76.63253 | 20131 ft | 341 kts | 283° |
| 2026-05-06 00:26 | -12.21349 | -76.65626 | 19743 ft | 346 kts | 284° |
| 2026-05-06 00:27 | -12.20813 | -76.68057 | 19181 ft | 353 kts | 283° |
| 2026-05-06 00:27 | -12.20271 | -76.70512 | 18649 ft | 355 kts | 283° |
| 2026-05-06 00:27 | -12.19732 | -76.72969 | 18127 ft | 355 kts | 283° |
| 2026-05-06 00:27 | -12.19189 | -76.75436 | 17565 ft | 355 kts | 283° |
| 2026-05-06 00:28 | -12.18648 | -76.77900 | 17046 ft | 354 kts | 283° |
| 2026-05-06 00:28 | -12.18111 | -76.80350 | 16499 ft | 353 kts | 283° |
| 2026-05-06 00:28 | -12.17583 | -76.82759 | 16024 ft | 351 kts | 283° |
| 2026-05-06 00:28 | -12.17051 | -76.85186 | 15540 ft | 350 kts | 283° |
| 2026-05-06 00:29 | -12.16519 | -76.87612 | 15054 ft | 348 kts | 283° |
| 2026-05-06 00:29 | -12.15990 | -76.90026 | 14571 ft | 347 kts | 282° |
| 2026-05-06 00:29 | -12.15462 | -76.92430 | 14089 ft | 347 kts | 282° |
| 2026-05-06 00:29 | -12.14933 | -76.94822 | 13735 ft | 341 kts | 282° |
| 2026-05-06 00:30 | -12.14595 | -76.96346 | 13697 ft | 331 kts | 282° |
| 2026-05-06 00:30 | -12.14105 | -76.98592 | 13609 ft | 317 kts | 282° |
| 2026-05-06 00:30 | -12.13633 | -77.00755 | 13519 ft | 309 kts | 282° |
| 2026-05-06 00:30 | -12.13007 | -77.03637 | 13420 ft | 316 kts | 282° |
| 2026-05-06 00:31 | -12.12685 | -77.05117 | 13378 ft | 315 kts | 282° |
| 2026-05-06 00:31 | -12.12210 | -77.07310 | 13308 ft | 318 kts | 282° |
| 2026-05-06 00:31 | -12.11727 | -77.09521 | 13223 ft | 318 kts | 282° |
| 2026-05-06 00:31 | -12.11253 | -77.11686 | 13152 ft | 306 kts | 282° |
| 2026-05-06 00:32 | -12.10795 | -77.13773 | 13034 ft | 295 kts | 282° |
| 2026-05-06 00:32 | -12.10348 | -77.15807 | 12737 ft | 293 kts | 282° |
| 2026-05-06 00:32 | -12.09846 | -77.17822 | 12358 ft | 292 kts | 292° |
| 2026-05-06 00:32 | -12.08735 | -77.19494 | 12039 ft | 289 kts | 319° |
| 2026-05-06 00:33 | -12.07017 | -77.20595 | 11513 ft | 295 kts | 334° |
| 2026-05-06 00:33 | -12.05148 | -77.21506 | 10996 ft | 300 kts | 335° |
| 2026-05-06 00:33 | -12.03266 | -77.22400 | 10529 ft | 293 kts | 335° |
| 2026-05-06 00:33 | -12.01463 | -77.23238 | 10226 ft | 280 kts | 334° |
| 2026-05-06 00:34 | -11.99726 | -77.24065 | 9890 ft | 269 kts | 334° |
| 2026-05-06 00:34 | -11.98024 | -77.24896 | 9388 ft | 275 kts | 333° |
| 2026-05-06 00:34 | -11.96294 | -77.25766 | 8892 ft | 280 kts | 333° |
| 2026-05-06 00:34 | -11.94541 | -77.26665 | 8391 ft | 281 kts | 333° |
| 2026-05-06 00:35 | -11.92803 | -77.27566 | 7904 ft | 278 kts | 333° |
| 2026-05-06 00:35 | -11.91103 | -77.28434 | 7550 ft | 267 kts | 334° |
| 2026-05-06 00:35 | -11.89462 | -77.29248 | 7240 ft | 257 kts | 334° |
| 2026-05-06 00:35 | -11.87884 | -77.30025 | 6978 ft | 246 kts | 334° |
| 2026-05-06 00:36 | -11.86360 | -77.30741 | 6661 ft | 237 kts | 343° |
| 2026-05-06 00:36 | -11.84758 | -77.30793 | 6497 ft | 231 kts | 18° |
| 2026-05-06 00:36 | -11.83493 | -77.29920 | 6430 ft | 219 kts | 52° |
| 2026-05-06 00:36 | -11.82669 | -77.28616 | 6262 ft | 215 kts | 59° |
| 2026-05-06 00:37 | -11.81939 | -77.27288 | 6006 ft | 214 kts | 61° |
| 2026-05-06 00:37 | -11.81261 | -77.25944 | 5760 ft | 212 kts | 63° |
| 2026-05-06 00:37 | -11.80781 | -77.24547 | 5487 ft | 213 kts | 86° |
| 2026-05-06 00:37 | -11.81139 | -77.23108 | 5235 ft | 212 kts | 125° |
| 2026-05-06 00:38 | -11.82182 | -77.22062 | 5046 ft | 209 kts | 142° |
| 2026-05-06 00:38 | -11.83340 | -77.21155 | 4784 ft | 210 kts | 143° |
| 2026-05-06 00:38 | -11.84517 | -77.20290 | 4610 ft | 205 kts | 145° |
| 2026-05-06 00:38 | -11.85670 | -77.19498 | 4558 ft | 191 kts | 149° |
| 2026-05-06 00:39 | -11.86782 | -77.18893 | 4483 ft | 175 kts | 154° |
| 2026-05-06 00:39 | -11.87840 | -77.18395 | 4147 ft | 168 kts | 156° |
| 2026-05-06 00:39 | -11.88910 | -77.17907 | 3687 ft | 168 kts | 156° |
| 2026-05-06 00:39 | -11.89983 | -77.17420 | 3180 ft | 169 kts | 156° |
| 2026-05-06 00:40 | -11.91049 | -77.16929 | 2698 ft | 169 kts | 155° |
| 2026-05-06 00:40 | -11.92105 | -77.16433 | 2316 ft | 163 kts | 155° |
| 2026-05-06 00:40 | -11.93109 | -77.15947 | 2126 ft | 158 kts | 154° |
| 2026-05-06 00:40 | -11.94044 | -77.15462 | 2034 ft | 140 kts | 154° |
| 2026-05-06 00:41 | -11.94877 | -77.15042 | 1971 ft | 132 kts | 155° |
| 2026-05-06 00:41 | -11.95697 | -77.14620 | 1751 ft | 131 kts | 154° |
| 2026-05-06 00:41 | -11.96499 | -77.14202 | 1430 ft | 128 kts | 155° |
| 2026-05-06 00:41 | -11.97294 | -77.13818 | 1095 ft | 125 kts | 156° |
| 2026-05-06 00:42 | -11.98089 | -77.13439 | 798 ft | 129 kts | 156° |
| 2026-05-06 00:42 | -11.98889 | -77.13061 | 569 ft | 128 kts | 156° |
| 2026-05-06 00:42 | -11.99685 | -77.12654 | 325 ft | 127 kts | 154° |
| 2026-05-06 00:42 | -12.00457 | -77.12286 | 143 ft | 115 kts | 156° |
| 2026-05-06 00:43 | -12.01140 | -77.11956 | 64 ft | 101 kts | 154° |
| 2026-05-06 00:43 | -12.01587 | -77.11728 | 76 ft | 52 kts | 154° |
| 2026-05-06 00:43 | -12.01917 | -77.11562 | 86 ft | 51 kts | 155° |
| 2026-05-06 00:43 | -12.02197 | -77.11390 | 95 ft | 29 kts | 130° |
| 2026-05-06 00:44 | -12.02295 | -77.11270 | 100 ft | 20 kts | 130° |
| 2026-05-06 00:44 | -12.02372 | -77.11161 | 102 ft | 17 kts | 117° |
| 2026-05-06 00:44 | -12.02387 | -77.11116 | 104 ft | 0 kts | 71° |
| 2026-05-06 00:44 | -12.02384 | -77.11112 | 104 ft | 1 kts | 50° |
| 2026-05-06 00:45 | -12.02377 | -77.11108 | 104 ft | 1 kts | 20° |
| 2026-05-06 00:45 | -12.02353 | -77.11105 | 104 ft | 10 kts | 7° |
| 2026-05-06 00:45 | -12.02242 | -77.11105 | 102 ft | 18 kts | 348° |
| 2026-05-06 00:45 | -12.02165 | -77.11101 | 101 ft | 10 kts | 10° |
| 2026-05-06 00:46 | -12.02112 | -77.11056 | 100 ft | 11 kts | 73° |
| 2026-05-06 00:46 | -12.02098 | -77.10999 | 101 ft | 1 kts | 96° |
| 2026-05-06 00:46 | -12.02101 | -77.10992 | 101 ft | 1 kts | 122° |
| 2026-05-06 00:46 | -12.02106 | -77.10987 | 101 ft | 1 kts | 135° |
| 2026-05-06 00:47 | -12.02123 | -77.10982 | 101 ft | 3 kts | 171° |
| 2026-05-06 00:47 | -12.02139 | -77.10979 | 102 ft | 0 kts | 172° |